Time;durP1;ratioP1;P1;durP2;ratioP2;P2;SDS_P1;SDS_P2;PMS_P1;PMS_P2;Temp;Humidity;BMP_temperature;BMP_pressure;BME280_temperature;BME280_humidity;BME280_pressure;Samples;Min_cycle;Max_cycle;Signal;HPM_P1;HPM_P2
2022/08/18 00:02:14;;;;;;;;;;;;;;;;;;5017870;28;20120;-31
2022/08/18 00:04:41;;;;;;;;;;;;;;;;;;5017938;28;20357;-38
2022/08/18 00:07:07;;;;;;;;;;;;;;;;;;5016721;28;19939;-32
2022/08/18 00:09:33;;;;;;;;;;;;;;;;;;5017871;28;20404;-31
2022/08/18 00:11:59;;;;;;;;;;;;;;;;;;5017885;28;20253;-32
2022/08/18 00:14:25;;;;;;;;;;;;;;;;;;5017801;28;19909;-31
2022/08/18 00:16:51;;;;;;;;;;;;;;;;;;5018242;28;20356;-31
2022/08/18 00:19:17;;;;;;;;;;;;;;;;;;5017582;28;20055;-30
2022/08/18 00:21:43;;;;;;;;;;;;;;;;;;5018167;28;19983;-31
2022/08/18 00:24:09;;;;;;;;;;;;;;;;;;5017513;28;20349;-33
2022/08/18 00:26:35;;;;;;;;;;;;;;;;;;5017836;28;19929;-33
2022/08/18 00:29:01;;;;;;;;;;;;;;;;;;5017719;28;20008;-32
2022/08/18 00:31:28;;;;;;;;;;;;;;;;;;5017559;28;19918;-33
2022/08/18 00:33:54;;;;;;;;;;;;;;;;;;5017845;28;20012;-32
2022/08/18 00:36:20;;;;;;;;;;;;;;;;;;5017375;28;19924;-33
2022/08/18 00:38:46;;;;;;;;;;;;;;;;;;5017285;28;19996;-30
2022/08/18 00:41:12;;;;;;;;;;;;;;;;;;5017220;28;19972;-30
2022/08/18 00:43:38;;;;;;;;;;;;;;;;;;5017684;28;20268;-31
2022/08/18 00:46:04;;;;;;;;;;;;;;;;;;5017132;28;19913;-31
2022/08/18 00:48:30;;;;;;;;;;;;;;;;;;5017127;28;19914;-34
2022/08/18 00:50:56;;;;;;;;;;;;;;;;;;5016094;28;20257;-33
2022/08/18 00:53:22;;;;;;;;;;;;;;;;;;5016937;28;19917;-32
2022/08/18 00:55:48;;;;;;;;;;;;;;;;;;5016936;28;19909;-32
2022/08/18 00:58:15;;;;;;;;;;;;;;;;;;5016900;28;19917;-34
2022/08/18 01:00:41;;;;;;;;;;;;;;;;;;5016918;28;19984;-33
2022/08/18 01:03:07;;;;;;;;;;;;;;;;;;5017318;28;20407;-33
2022/08/18 01:05:33;;;;;;;;;;;;;;;;;;5015857;28;19917;-31
2022/08/18 01:07:59;;;;;;;;;;;;;;;;;;5016594;28;19972;-32
2022/08/18 01:10:25;;;;;;;;;;;;;;;;;;5016928;28;20355;-32
2022/08/18 01:12:51;;;;;;;;;;;;;;;;;;5016641;28;20012;-31
2022/08/18 01:15:17;;;;;;;;;;;;;;;;;;5015974;28;20408;-31
2022/08/18 01:23:12;;;;;;;;;;;;;;;;;;5016554;28;19927;-32
2022/08/18 01:28:22;;;;;;;;;;;;;;;;;;5016735;28;19928;-32
2022/08/18 01:30:49;;;;;;;;;;;;;;;;;;5016304;28;20252;-30
2022/08/18 01:33:15;;;;;;;;;;;;;;;;;;5016192;28;19917;-31
2022/08/18 01:35:41;;;;;;;;;;;;;;;;;;5016267;28;19910;-32
2022/08/18 01:38:07;;;;;;;;;;;;;;;;;;5016790;28;19924;-31
2022/08/18 01:40:33;;;;;;;;;;;;;;;;;;5016196;28;20388;-32
2022/08/18 01:43:02;;;;;;;;;;;;;;;;;;5015153;28;20008;-32
2022/08/18 01:45:28;;;;;;;;;;;;;;;;;;5016379;28;19920;-31
2022/08/18 01:47:54;;;;;;;;;;;;;;;;;;5016068;28;19914;-31
2022/08/18 01:50:20;;;;;;;;;;;;;;;;;;5015920;28;20361;-31
2022/08/18 01:52:46;;;;;;;;;;;;;;;;;;5016064;28;19921;-31
2022/08/18 01:55:12;;;;;;;;;;;;;;;;;;5015910;28;20379;-32
2022/08/18 01:57:43;;;;;;;;;;;;;;;;;;5015028;28;19914;-31
2022/08/18 02:00:09;;;;;;;;;;;;;;;;;;5015850;28;19925;-32
2022/08/18 02:02:35;;;;;;;;;;;;;;;;;;5015800;28;19920;-31
2022/08/18 02:05:01;;;;;;;;;;;;;;;;;;5015807;28;19914;-33
2022/08/18 02:07:27;;;;;;;;;;;;;;;;;;5015648;28;19917;-31
2022/08/18 02:09:53;;;;;;;;;;;;;;;;;;5015619;28;20303;-31
2022/08/18 02:12:19;;;;;;;;;;;;;;;;;;5015624;28;20260;-31
2022/08/18 02:14:45;;;;;;;;;;;;;;;;;;5015650;28;19914;-31
2022/08/18 02:17:11;;;;;;;;;;;;;;;;;;5015655;28;19909;-31
2022/08/18 02:19:37;;;;;;;;;;;;;;;;;;5015585;28;20001;-30
2022/08/18 02:22:03;;;;;;;;;;;;;;;;;;5015465;28;20348;-32
2022/08/18 02:24:29;;;;;;;;;;;;;;;;;;5015525;28;20237;-31
2022/08/18 02:26:55;;;;;;;;;;;;;;;;;;5016010;28;19984;-32
2022/08/18 02:29:21;;;;;;;;;;;;;;;;;;5015476;28;20420;-32
2022/08/18 02:31:47;;;;;;;;;;;;;;;;;;5016091;28;19947;-33
2022/08/18 02:34:13;;;;;;;;;;;;;;;;;;5015466;28;20265;-32
2022/08/18 02:36:39;;;;;;;;;;;;;;;;;;5014502;28;19913;-32
2022/08/18 02:39:05;;;;;;;;;;;;;;;;;;5015354;28;20344;-31
2022/08/18 02:41:32;;;;;;;;;;;;;;;;;;5015413;28;19906;-31
2022/08/18 02:43:58;;;;;;;;;;;;;;;;;;5015546;28;19913;-31
2022/08/18 02:46:24;;;;;;;;;;;;;;;;;;5015398;28;19906;-32
2022/08/18 02:48:55;;;;;;;;;;;;;;;;;;5015538;28;19913;-32
2022/08/18 02:51:21;;;;;;;;;;;;;;;;;;5015230;28;19913;-32
2022/08/18 02:53:47;;;;;;;;;;;;;;;;;;5015159;28;19921;-31
2022/08/18 02:56:19;;;;;;;;;;;;;;;;;;5015205;28;19976;-31
2022/08/18 02:58:45;;;;;;;;;;;;;;;;;;5014317;28;20372;-32
2022/08/18 03:01:11;;;;;;;;;;;;;;;;;;5015199;28;19914;-31
2022/08/18 03:03:37;;;;;;;;;;;;;;;;;;5015056;28;19914;-32
2022/08/18 03:06:03;;;;;;;;;;;;;;;;;;5015737;28;20333;-33
2022/08/18 03:08:29;;;;;;;;;;;;;;;;;;5014942;28;19925;-31
2022/08/18 03:10:55;;;;;;;;;;;;;;;;;;5015056;28;20311;-34
2022/08/18 03:13:21;;;;;;;;;;;;;;;;;;5015111;28;19913;-35
2022/08/18 03:15:47;;;;;;;;;;;;;;;;;;5015048;28;19945;-31
2022/08/18 03:18:13;;;;;;;;;;;;;;;;;;5015576;28;19984;-34
2022/08/18 03:20:42;;;;;;;;;;;;;;;;;;5014992;28;19916;-32
2022/08/18 03:23:08;;;;;;;;;;;;;;;;;;5014875;28;19914;-34
2022/08/18 03:25:34;;;;;;;;;;;;;;;;;;5014924;28;19967;-32
2022/08/18 03:28:00;;;;;;;;;;;;;;;;;;5015489;28;19923;-31
2022/08/18 03:30:26;;;;;;;;;;;;;;;;;;5014873;28;19913;-33
2022/08/18 03:32:52;;;;;;;;;;;;;;;;;;5014816;28;19917;-31
2022/08/18 03:35:18;;;;;;;;;;;;;;;;;;5014889;28;20360;-31
2022/08/18 03:37:45;;;;;;;;;;;;;;;;;;5015927;28;19913;-32
2022/08/18 03:40:11;;;;;;;;;;;;;;;;;;5018662;28;19910;-31
2022/08/18 03:42:37;;;;;;;;;;;;;;;;;;5018283;28;20352;-31
2022/08/18 03:45:04;;;;;;;;;;;;;;;;;;5018302;28;20004;-32
2022/08/18 03:47:30;;;;;;;;;;;;;;;;;;5018488;28;20020;-32
2022/08/18 03:49:58;;;;;;;;;;;;;;;;;;5018148;28;20313;-31
2022/08/18 03:52:24;;;;;;;;;;;;;;;;;;5018716;28;19923;-32
2022/08/18 03:54:50;;;;;;;;;;;;;;;;;;5018131;28;19913;-33
2022/08/18 03:57:16;;;;;;;;;;;;;;;;;;5018050;28;20349;-31
2022/08/18 03:59:42;;;;;;;;;;;;;;;;;;5018305;28;19921;-34
2022/08/18 04:02:08;;;;;;;;;;;;;;;;;;5017845;28;20392;-33
2022/08/18 04:04:34;;;;;;;;;;;;;;;;;;5018227;28;19960;-33
2022/08/18 04:07:03;;;;;;;;;;;;;;;;;;5017600;28;20438;-33
2022/08/18 04:09:29;;;;;;;;;;;;;;;;;;5016736;28;19913;-32
2022/08/18 04:11:55;;;;;;;;;;;;;;;;;;5018069;28;19921;-33
2022/08/18 04:14:23;;;;;;;;;;;;;;;;;;5017632;28;19970;-31
2022/08/18 04:16:49;;;;;;;;;;;;;;;;;;5017513;28;19949;-32
2022/08/18 04:19:16;;;;;;;;;;;;;;;;;;5017571;28;19909;-33
2022/08/18 04:21:42;;;;;;;;;;;;;;;;;;5017756;28;19913;-32
2022/08/18 04:24:08;;;;;;;;;;;;;;;;;;5017427;28;20264;-33
2022/08/18 04:26:34;;;;;;;;;;;;;;;;;;5017495;28;19909;-33
2022/08/18 04:29:00;;;;;;;;;;;;;;;;;;5017634;28;20341;-33
2022/08/18 04:31:27;;;;;;;;;;;;;;;;;;5017307;28;19967;-34
2022/08/18 04:33:53;;;;;;;;;;;;;;;;;;5017299;28;19968;-30
2022/08/18 04:36:19;;;;;;;;;;;;;;;;;;5016385;28;19913;-31
2022/08/18 04:38:45;;;;;;;;;;;;;;;;;;5017516;28;20012;-32
2022/08/18 04:41:11;;;;;;;;;;;;;;;;;;5017491;28;19909;-31
2022/08/18 04:43:38;;;;;;;;;;;;;;;;;;5017118;28;20361;-34
2022/08/18 04:46:05;;;;;;;;;;;;;;;;;;5017416;28;20260;-35
2022/08/18 04:48:34;;;;;;;;;;;;;;;;;;5015614;28;19913;-35
2022/08/18 04:51:00;;;;;;;;;;;;;;;;;;5016940;28;19914;-34
2022/08/18 04:53:45;;;;;;;;;;;;;;;;;;5017019;28;19924;-35
2022/08/18 04:56:11;;;;;;;;;;;;;;;;;;5017306;28;19913;-34
2022/08/18 04:58:37;;;;;;;;;;;;;;;;;;5016875;28;19936;-33
2022/08/18 05:01:03;;;;;;;;;;;;;;;;;;5016709;28;19936;-33
2022/08/18 05:03:29;;;;;;;;;;;;;;;;;;5016643;28;19915;-35
2022/08/18 05:05:56;;;;;;;;;;;;;;;;;;5016893;28;19913;-32
2022/08/18 05:08:22;;;;;;;;;;;;;;;;;;5015557;28;20375;-31
2022/08/18 05:10:48;;;;;;;;;;;;;;;;;;5016591;28;19967;-31
2022/08/18 05:13:16;;;;;;;;;;;;;;;;;;5016427;28;19956;-31
2022/08/18 05:15:42;;;;;;;;;;;;;;;;;;5016840;28;20311;-34
2022/08/18 05:18:08;;;;;;;;;;;;;;;;;;5016791;28;19928;-31
2022/08/18 05:20:34;;;;;;;;;;;;;;;;;;5016705;28;19910;-35
2022/08/18 05:23:00;;;;;;;;;;;;;;;;;;5016393;28;19994;-32
2022/08/18 05:25:28;;;;;;;;;;;;;;;;;;5016651;28;19964;-34
2022/08/18 05:27:54;;;;;;;;;;;;;;;;;;5016258;28;19913;-31
2022/08/18 05:30:20;;;;;;;;;;;;;;;;;;5016570;28;19975;-32
2022/08/18 05:32:46;;;;;;;;;;;;;;;;;;5016088;28;19913;-33
2022/08/18 05:35:13;;;;;;;;;;;;;;;;;;5016326;28;19964;-31
2022/08/18 05:37:38;;;;;;;;;;;;;;;;;;5016490;28;19914;-32
2022/08/18 05:40:08;;;;;;;;;;;;;;;;;;5016462;28;19914;-33
2022/08/18 05:42:35;;;;;;;;;;;;;;;;;;5016341;28;19979;-33
2022/08/18 05:45:01;;;;;;;;;;;;;;;;;;5016086;28;20312;-34
2022/08/18 05:47:27;;;;;;;;;;;;;;;;;;5016029;28;19910;-31
2022/08/18 05:49:53;;;;;;;;;;;;;;;;;;5015980;28;19967;-31
2022/08/18 05:52:19;;;;;;;;;;;;;;;;;;5015825;28;19917;-33
2022/08/18 05:57:29;;;;;;;;;;;;;;;;;;5016030;28;19979;-32
2022/08/18 05:59:55;;;;;;;;;;;;;;;;;;5016485;28;19913;-31
2022/08/18 06:02:21;;;;;;;;;;;;;;;;;;5449389;22;19921;-26
2022/08/18 06:04:47;;;;;;;;;;;;;;;;;;5016037;28;19967;-28
2022/08/18 06:07:13;;;;;;;;;;;;;;;;;;5015721;28;19928;-29
2022/08/18 06:09:41;;;;;;;;;;;;;;;;;;5015681;28;19924;-29
2022/08/18 06:12:07;;;;;;;;;;;;;;;;;;5015859;28;20072;-29
2022/08/18 06:14:33;;;;;;;;;;;;;;;;;;5015692;28;19917;-29
2022/08/18 06:16:59;;;;;;;;;;;;;;;;;;5015839;28;19960;-29
2022/08/18 06:19:25;;;;;;;;;;;;;;;;;;5015274;28;19909;-29
2022/08/18 06:21:51;;;;;;;;;;;;;;;;;;5015420;28;19913;-29
2022/08/18 06:24:17;;;;;;;;;;;;;;;;;;5015548;28;19935;-29
2022/08/18 06:26:44;;;;;;;;;;;;;;;;;;5015718;28;20391;-29
2022/08/18 06:29:10;;;;;;;;;;;;;;;;;;5015334;28;20245;-28
2022/08/18 06:31:36;;;;;;;;;;;;;;;;;;5015528;28;19948;-28
2022/08/18 06:34:02;;;;;;;;;;;;;;;;;;5015172;28;19914;-27
2022/08/18 06:36:28;;;;;;;;;;;;;;;;;;5015241;28;20000;-28
2022/08/18 06:38:55;;;;;;;;;;;;;;;;;;5015261;28;19944;-28
2022/08/18 06:41:24;;;;;;;;;;;;;;;;;;5015455;28;20264;-29
2022/08/18 06:43:50;;;;;;;;;;;;;;;;;;5015134;28;20004;-29
2022/08/18 06:46:16;;;;;;;;;;;;;;;;;;5015118;28;19936;-29
2022/08/18 06:48:42;;;;;;;;;;;;;;;;;;5015434;28;19913;-28
2022/08/18 06:51:08;;;;;;;;;;;;;;;;;;5015016;28;20352;-28
2022/08/18 06:53:34;;;;;;;;;;;;;;;;;;5015068;28;19975;-28
2022/08/18 06:56:00;;;;;;;;;;;;;;;;;;5015466;28;19914;-29
2022/08/18 06:58:28;;;;;;;;;;;;;;;;;;5015957;28;20240;-28
2022/08/18 07:00:54;;;;;;;;;;;;;;;;;;5015151;28;19913;-28
2022/08/18 07:03:20;;;;;;;;;;;;;;;;;;5013959;28;19918;-28
2022/08/18 07:05:46;;;;;;;;;;;;;;;;;;5015129;28;19913;-28
2022/08/18 07:08:13;;;;;;;;;;;;;;;;;;5015031;28;19933;-28
2022/08/18 07:10:39;;;;;;;;;;;;;;;;;;5015250;28;20272;-28
2022/08/18 07:13:05;;;;;;;;;;;;;;;;;;5016908;28;19921;-29
2022/08/18 07:15:31;;;;;;;;;;;;;;;;;;5018837;28;19913;-26
2022/08/18 07:17:57;;;;;;;;;;;;;;;;;;5018796;28;19916;-28
2022/08/18 07:20:23;;;;;;;;;;;;;;;;;;5019040;28;19917;-28
2022/08/18 07:22:50;;;;;;;;;;;;;;;;;;5018613;28;19925;-29
2022/08/18 07:25:16;;;;;;;;;;;;;;;;;;5018598;28;19945;-29
2022/08/18 07:27:42;;;;;;;;;;;;;;;;;;5018516;28;19976;-28
2022/08/18 07:30:08;;;;;;;;;;;;;;;;;;5018709;28;19910;-27
2022/08/18 07:32:34;;;;;;;;;;;;;;;;;;5018351;28;20237;-27
2022/08/18 07:35:00;;;;;;;;;;;;;;;;;;5018693;28;19910;-26
2022/08/18 07:37:26;;;;;;;;;;;;;;;;;;5018637;28;20323;-27
2022/08/18 07:39:52;;;;;;;;;;;;;;;;;;5018296;28;19963;-29
2022/08/18 07:42:18;;;;;;;;;;;;;;;;;;5018344;28;19914;-29
2022/08/18 07:44:44;;;;;;;;;;;;;;;;;;5018505;28;19964;-29
2022/08/18 07:47:10;;;;;;;;;;;;;;;;;;5018164;28;20329;-29
2022/08/18 07:49:37;;;;;;;;;;;;;;;;;;5018141;28;19909;-28
2022/08/18 07:52:03;;;;;;;;;;;;;;;;;;5018009;28;19918;-28
2022/08/18 07:54:29;;;;;;;;;;;;;;;;;;5018005;28;19923;-29
2022/08/18 07:56:55;;;;;;;;;;;;;;;;;;5018074;28;20351;-29
2022/08/18 07:59:21;;;;;;;;;;;;;;;;;;5018249;28;19913;-28
2022/08/18 08:01:48;;;;;;;;;;;;;;;;;;5017819;28;19913;-28
2022/08/18 08:04:14;;;;;;;;;;;;;;;;;;5017687;28;19918;-29
2022/08/18 08:06:40;;;;;;;;;;;;;;;;;;5018086;28;20004;-28
2022/08/18 08:09:06;;;;;;;;;;;;;;;;;;5018050;28;19964;-28
2022/08/18 08:11:32;;;;;;;;;;;;;;;;;;5017507;28;19979;-28
2022/08/18 08:13:58;;;;;;;;;;;;;;;;;;5017700;28;19968;-28
2022/08/18 08:16:24;;;;;;;;;;;;;;;;;;5017841;28;19945;-28
2022/08/18 08:18:50;;;;;;;;;;;;;;;;;;5016570;28;19909;-29
2022/08/18 08:21:16;;;;;;;;;;;;;;;;;;5016449;28;19975;-28
2022/08/18 08:23:43;;;;;;;;;;;;;;;;;;5017373;28;19968;-28
2022/08/18 08:26:09;;;;;;;;;;;;;;;;;;5017762;28;19914;-28
2022/08/18 08:28:35;;;;;;;;;;;;;;;;;;5017423;28;19913;-28
2022/08/18 08:31:03;;;;;;;;;;;;;;;;;;5017696;28;20009;-28
2022/08/18 08:33:29;;;;;;;;;;;;;;;;;;5017523;28;19939;-28
2022/08/18 08:35:55;;;;;;;;;;;;;;;;;;5017574;28;20004;-28
2022/08/18 08:38:22;;;;;;;;;;;;;;;;;;5017248;28;19956;-27
2022/08/18 08:40:50;;;;;;;;;;;;;;;;;;5017407;28;19913;-27
2022/08/18 08:43:16;;;;;;;;;;;;;;;;;;5016975;28;19914;-27
2022/08/18 08:45:42;;;;;;;;;;;;;;;;;;5017052;28;19913;-27
2022/08/18 08:48:12;;;;;;;;;;;;;;;;;;5015835;28;19914;-27
2022/08/18 08:50:38;;;;;;;;;;;;;;;;;;5016843;28;19913;-27
2022/08/18 08:53:04;;;;;;;;;;;;;;;;;;5016480;28;19920;-27
2022/08/18 08:55:30;;;;;;;;;;;;;;;;;;5016742;28;19913;-27
2022/08/18 08:57:56;;;;;;;;;;;;;;;;;;5016827;28;20260;-27
2022/08/18 09:00:22;;;;;;;;;;;;;;;;;;5016771;28;19917;-27
2022/08/18 09:02:48;;;;;;;;;;;;;;;;;;5016216;28;19924;-27
2022/08/18 09:05:14;;;;;;;;;;;;;;;;;;5016467;28;19917;-27
2022/08/18 09:07:40;;;;;;;;;;;;;;;;;;5016364;28;19914;-27
2022/08/18 09:10:06;;;;;;;;;;;;;;;;;;5016294;28;19967;-27
2022/08/18 09:12:32;;;;;;;;;;;;;;;;;;5016370;28;19996;-27
2022/08/18 09:14:59;;;;;;;;;;;;;;;;;;5016240;28;19948;-27
2022/08/18 09:17:25;;;;;;;;;;;;;;;;;;5016488;28;19910;-27
2022/08/18 09:19:51;;;;;;;;;;;;;;;;;;5015168;28;20352;-27
2022/08/18 09:22:17;;;;;;;;;;;;;;;;;;5016171;28;19913;-28
2022/08/18 09:24:43;;;;;;;;;;;;;;;;;;5016096;28;20360;-28
2022/08/18 09:27:12;;;;;;;;;;;;;;;;;;5015995;28;19921;-27
2022/08/18 09:29:38;;;;;;;;;;;;;;;;;;5015881;28;20360;-27
2022/08/18 09:32:04;;;;;;;;;;;;;;;;;;5015749;28;19914;-27
2022/08/18 09:34:31;;;;;;;;;;;;;;;;;;5016002;28;19924;-28
2022/08/18 09:36:57;;;;;;;;;;;;;;;;;;5015256;28;20015;-28
2022/08/18 09:42:07;;;;;;;;;;;;;;;;;;5015932;28;19979;-27
2022/08/18 09:44:34;;;;;;;;;;;;;;;;;;5015899;28;20360;-28
2022/08/18 09:47:00;;;;;;;;;;;;;;;;;;5015559;28;20055;-28
2022/08/18 09:49:26;;;;;;;;;;;;;;;;;;5014664;28;19941;-27
2022/08/18 09:51:52;;;;;;;;;;;;;;;;;;5015438;28;19917;-27
2022/08/18 09:54:19;;;;;;;;;;;;;;;;;;5015561;28;19949;-28
2022/08/18 09:56:45;;;;;;;;;;;;;;;;;;5015537;28;19989;-27
2022/08/18 09:59:11;;;;;;;;;;;;;;;;;;5015388;28;19910;-27
2022/08/18 10:01:38;;;;;;;;;;;;;;;;;;5015463;28;19968;-27
2022/08/18 10:04:05;;;;;;;;;;;;;;;;;;5015106;28;19917;-27
2022/08/18 10:06:31;;;;;;;;;;;;;;;;;;5015270;28;19916;-27
2022/08/18 10:08:57;;;;;;;;;;;;;;;;;;5015307;28;19999;-27
2022/08/18 10:11:23;;;;;;;;;;;;;;;;;;5015198;28;19925;-27
2022/08/18 10:13:49;;;;;;;;;;;;;;;;;;5015248;28;20000;-27
2022/08/18 10:16:15;;;;;;;;;;;;;;;;;;5015025;28;19945;-27
2022/08/18 10:18:41;;;;;;;;;;;;;;;;;;5015185;28;19964;-27
2022/08/18 10:21:07;;;;;;;;;;;;;;;;;;5015232;28;19917;-27
2022/08/18 10:23:33;;;;;;;;;;;;;;;;;;5015055;28;19913;-27
2022/08/18 10:25:59;;;;;;;;;;;;;;;;;;5015107;28;19909;-27
2022/08/18 10:28:25;;;;;;;;;;;;;;;;;;5015325;28;19949;-27
2022/08/18 10:30:51;;;;;;;;;;;;;;;;;;5014955;28;19913;-27
2022/08/18 10:33:17;;;;;;;;;;;;;;;;;;5014821;28;20323;-27
2022/08/18 10:35:44;;;;;;;;;;;;;;;;;;5015124;28;19913;-26
2022/08/18 10:38:10;;;;;;;;;;;;;;;;;;5014792;28;19917;-27
2022/08/18 10:40:36;;;;;;;;;;;;;;;;;;5015108;28;19928;-27
2022/08/18 10:43:02;;;;;;;;;;;;;;;;;;5014903;28;20311;-27
2022/08/18 10:45:29;;;;;;;;;;;;;;;;;;5015084;28;19964;-27
2022/08/18 10:47:55;;;;;;;;;;;;;;;;;;5016331;28;19914;-27
2022/08/18 10:50:21;;;;;;;;;;;;;;;;;;5019040;28;19909;-27
2022/08/18 10:52:47;;;;;;;;;;;;;;;;;;5018661;28;19914;-27
2022/08/18 10:55:13;;;;;;;;;;;;;;;;;;5018792;28;20359;-27
2022/08/18 10:57:39;;;;;;;;;;;;;;;;;;5018794;28;19914;-27
2022/08/18 11:00:06;;;;;;;;;;;;;;;;;;5018983;28;19909;-27
2022/08/18 11:02:33;;;;;;;;;;;;;;;;;;5018585;28;19917;-27
2022/08/18 11:04:59;;;;;;;;;;;;;;;;;;5018679;28;19913;-27
2022/08/18 11:07:25;;;;;;;;;;;;;;;;;;5018569;28;19909;-27
2022/08/18 11:09:51;;;;;;;;;;;;;;;;;;5018587;28;19921;-28
2022/08/18 11:12:17;;;;;;;;;;;;;;;;;;5019161;28;19921;-27
2022/08/18 11:14:43;;;;;;;;;;;;;;;;;;5018751;28;20020;-28
2022/08/18 11:17:09;;;;;;;;;;;;;;;;;;5018397;28;20349;-27
2022/08/18 11:19:35;;;;;;;;;;;;;;;;;;5018367;28;20000;-28
2022/08/18 11:22:01;;;;;;;;;;;;;;;;;;5018470;28;19956;-28
2022/08/18 11:24:27;;;;;;;;;;;;;;;;;;5018315;28;20337;-28
2022/08/18 11:26:53;;;;;;;;;;;;;;;;;;5018124;28;19925;-27
2022/08/18 11:29:20;;;;;;;;;;;;;;;;;;5017077;28;19967;-27
2022/08/18 11:31:46;;;;;;;;;;;;;;;;;;5017853;28;19949;-27
2022/08/18 11:34:12;;;;;;;;;;;;;;;;;;5018357;28;19909;-28
2022/08/18 11:36:38;;;;;;;;;;;;;;;;;;5018298;28;19916;-28
2022/08/18 11:39:04;;;;;;;;;;;;;;;;;;5018310;28;19909;-27
2022/08/18 11:41:30;;;;;;;;;;;;;;;;;;5018217;28;19929;-27
2022/08/18 11:43:56;;;;;;;;;;;;;;;;;;5018125;28;19917;-28
2022/08/18 11:46:24;;;;;;;;;;;;;;;;;;5017868;28;19913;-28
2022/08/18 11:48:50;;;;;;;;;;;;;;;;;;5017766;28;20359;-28
2022/08/18 11:51:16;;;;;;;;;;;;;;;;;;5017900;28;19921;-28
2022/08/18 11:53:42;;;;;;;;;;;;;;;;;;5017693;28;20260;-28
2022/08/18 11:56:08;;;;;;;;;;;;;;;;;;5017772;28;19913;-27
2022/08/18 11:58:34;;;;;;;;;;;;;;;;;;5017148;28;19972;-28
2022/08/18 12:01:00;;;;;;;;;;;;;;;;;;5017793;28;19910;-27
2022/08/18 12:03:26;;;;;;;;;;;;;;;;;;5017544;28;19917;-28
2022/08/18 12:05:52;;;;;;;;;;;;;;;;;;5017595;28;19913;-28
2022/08/18 12:08:20;;;;;;;;;;;;;;;;;;5017639;28;20272;-27
2022/08/18 12:10:47;;;;;;;;;;;;;;;;;;5017425;28;19921;-28
2022/08/18 12:13:15;;;;;;;;;;;;;;;;;;5016617;28;20214;-27
2022/08/18 12:15:41;;;;;;;;;;;;;;;;;;5017392;28;19913;-27
2022/08/18 12:18:07;;;;;;;;;;;;;;;;;;5017439;28;19909;-28
2022/08/18 12:20:33;;;;;;;;;;;;;;;;;;5016352;28;20403;-27
2022/08/18 12:22:59;;;;;;;;;;;;;;;;;;5017118;28;20000;-28
2022/08/18 12:25:25;;;;;;;;;;;;;;;;;;5017401;28;19956;-28
2022/08/18 12:27:51;;;;;;;;;;;;;;;;;;5017389;28;20311;-27
2022/08/18 12:30:18;;;;;;;;;;;;;;;;;;5017333;28;20276;-27
2022/08/18 12:32:44;;;;;;;;;;;;;;;;;;5017111;28;19909;-28
2022/08/18 12:35:11;;;;;;;;;;;;;;;;;;5017116;28;19920;-27
2022/08/18 12:37:37;;;;;;;;;;;;;;;;;;5017091;28;20257;-27
2022/08/18 12:40:03;;;;;;;;;;;;;;;;;;5017018;28;19932;-27
2022/08/18 12:42:29;;;;;;;;;;;;;;;;;;5016651;28;20241;-27
2022/08/18 12:44:55;;;;;;;;;;;;;;;;;;5016682;28;19917;-27
2022/08/18 12:47:21;;;;;;;;;;;;;;;;;;5016853;28;19993;-28
2022/08/18 12:49:47;;;;;;;;;;;;;;;;;;5016749;28;20345;-28
2022/08/18 12:52:13;;;;;;;;;;;;;;;;;;5016349;28;19921;-27
2022/08/18 12:54:39;;;;;;;;;;;;;;;;;;5016459;28;20380;-27
2022/08/18 12:57:05;;;;;;;;;;;;;;;;;;5016559;28;19928;-27
2022/08/18 12:59:31;;;;;;;;;;;;;;;;;;5015327;28;20000;-27
2022/08/18 13:01:58;;;;;;;;;;;;;;;;;;5016242;28;19914;-27
2022/08/18 13:04:24;;;;;;;;;;;;;;;;;;5016159;28;19921;-28
2022/08/18 13:06:50;;;;;;;;;;;;;;;;;;5016340;28;19976;-28
2022/08/18 13:09:15;;;;;;;;;;;;;;;;;;5016188;28;19917;-27
2022/08/18 13:11:41;;;;;;;;;;;;;;;;;;5015493;28;19917;-27
2022/08/18 13:14:07;;;;;;;;;;;;;;;;;;5016203;28;19909;-27
2022/08/18 13:16:33;;;;;;;;;;;;;;;;;;5016148;28;19939;-28
2022/08/18 13:19:00;;;;;;;;;;;;;;;;;;5016062;28;20403;-27
2022/08/18 13:21:26;;;;;;;;;;;;;;;;;;5016115;28;20359;-27
2022/08/18 13:23:52;;;;;;;;;;;;;;;;;;5015962;28;19976;-27
2022/08/18 13:26:18;;;;;;;;;;;;;;;;;;5016024;28;19972;-27
2022/08/18 13:28:44;;;;;;;;;;;;;;;;;;5016142;28;20248;-27
2022/08/18 13:31:10;;;;;;;;;;;;;;;;;;5015841;28;19968;-27
2022/08/18 13:33:36;;;;;;;;;;;;;;;;;;5015725;28;20343;-27
2022/08/18 13:36:02;;;;;;;;;;;;;;;;;;5015766;28;19913;-27
2022/08/18 13:38:28;;;;;;;;;;;;;;;;;;5015715;28;19996;-28
2022/08/18 13:40:54;;;;;;;;;;;;;;;;;;5015752;28;19913;-28
2022/08/18 13:43:20;;;;;;;;;;;;;;;;;;5015845;28;19959;-28
2022/08/18 13:45:48;;;;;;;;;;;;;;;;;;5015601;28;19921;-28
2022/08/18 13:48:15;;;;;;;;;;;;;;;;;;5015882;28;19909;-28
2022/08/18 13:50:41;;;;;;;;;;;;;;;;;;5015458;28;20004;-28
2022/08/18 13:53:07;;;;;;;;;;;;;;;;;;5015736;28;19948;-28
2022/08/18 13:55:33;;;;;;;;;;;;;;;;;;5015743;28;20263;-28
2022/08/18 13:57:59;;;;;;;;;;;;;;;;;;5015429;28;19916;-28
2022/08/18 14:00:28;;;;;;;;;;;;;;;;;;5015448;28;19963;-28
2022/08/18 14:02:57;;;;;;;;;;;;;;;;;;5015185;28;19921;-28
2022/08/18 14:05:23;;;;;;;;;;;;;;;;;;5015569;28;19917;-28
2022/08/18 14:07:49;;;;;;;;;;;;;;;;;;5015537;28;20385;-28
2022/08/18 14:10:16;;;;;;;;;;;;;;;;;;5015389;28;19914;-28
2022/08/18 14:12:42;;;;;;;;;;;;;;;;;;5015302;28;20206;-28
2022/08/18 14:15:08;;;;;;;;;;;;;;;;;;5015204;28;19913;-28
2022/08/18 14:17:34;;;;;;;;;;;;;;;;;;5015414;28;20319;-28
2022/08/18 14:28:17;;;;;;;;;;;;;;;;;;5015282;28;19924;-28
2022/08/18 14:30:43;;;;;;;;;;;;;;;;;;5014998;28;19935;-28
2022/08/18 14:33:09;;;;;;;;;;;;;;;;;;5014806;28;20260;-28
2022/08/18 14:35:35;;;;;;;;;;;;;;;;;;5015157;28;19909;-28
2022/08/18 14:38:01;;;;;;;;;;;;;;;;;;5014836;28;19920;-28
2022/08/18 14:40:27;;;;;;;;;;;;;;;;;;5014740;28;20229;-28
2022/08/18 14:42:54;;;;;;;;;;;;;;;;;;5014718;28;19924;-28
2022/08/18 14:45:20;;;;;;;;;;;;;;;;;;5014669;28;19915;-28
2022/08/18 14:47:46;;;;;;;;;;;;;;;;;;5014981;28;19991;-28
2022/08/18 14:50:12;;;;;;;;;;;;;;;;;;5014781;28;19910;-28
2022/08/18 14:52:38;;;;;;;;;;;;;;;;;;5015283;28;20395;-29
2022/08/18 14:55:04;;;;;;;;;;;;;;;;;;5014734;28;19941;-28
2022/08/18 14:57:30;;;;;;;;;;;;;;;;;;5014662;28;20000;-28
2022/08/18 14:59:56;;;;;;;;;;;;;;;;;;5014960;28;19975;-28
2022/08/18 15:02:22;;;;;;;;;;;;;;;;;;5014359;28;20339;-28
2022/08/18 15:04:48;;;;;;;;;;;;;;;;;;5014897;28;19971;-28
2022/08/18 15:07:15;;;;;;;;;;;;;;;;;;5014465;28;19914;-28
2022/08/18 15:09:41;;;;;;;;;;;;;;;;;;5014866;28;19956;-28
2022/08/18 15:12:07;;;;;;;;;;;;;;;;;;5014331;28;20337;-28
2022/08/18 15:14:34;;;;;;;;;;;;;;;;;;5014792;28;19913;-28
2022/08/18 15:17:00;;;;;;;;;;;;;;;;;;5014801;28;19965;-28
2022/08/18 15:19:26;;;;;;;;;;;;;;;;;;5014550;28;19992;-28
2022/08/18 15:27:21;;;;;;;;;;;;;;;;;;5014814;28;19971;-28
2022/08/18 15:29:48;;;;;;;;;;;;;;;;;;5014749;28;19921;-28
2022/08/18 15:32:14;;;;;;;;;;;;;;;;;;5014894;28;19918;-28
2022/08/18 15:34:43;;;;;;;;;;;;;;;;;;5016957;28;20387;-28
2022/08/18 15:37:09;;;;;;;;;;;;;;;;;;5018120;28;19917;-28
2022/08/18 15:39:35;;;;;;;;;;;;;;;;;;5018122;28;20359;-28
2022/08/18 15:42:01;;;;;;;;;;;;;;;;;;5017945;28;20299;-27
2022/08/18 15:44:29;;;;;;;;;;;;;;;;;;5018276;28;19909;-28
2022/08/18 15:46:55;;;;;;;;;;;;;;;;;;5018116;28;19913;-28
2022/08/18 15:49:22;;;;;;;;;;;;;;;;;;5017909;28;20230;-28
2022/08/18 15:51:48;;;;;;;;;;;;;;;;;;5017968;28;20307;-28
2022/08/18 15:54:14;;;;;;;;;;;;;;;;;;5017859;28;19948;-28
2022/08/18 15:56:40;;;;;;;;;;;;;;;;;;5017988;28;19992;-28
2022/08/18 15:59:09;;;;;;;;;;;;;;;;;;5017704;28;20317;-29
2022/08/18 16:01:37;;;;;;;;;;;;;;;;;;5017620;28;19916;-28
2022/08/18 16:04:03;;;;;;;;;;;;;;;;;;5017411;28;19984;-29
2022/08/18 16:06:29;;;;;;;;;;;;;;;;;;5017552;28;20375;-29
2022/08/18 16:08:55;;;;;;;;;;;;;;;;;;5017565;28;19916;-29
2022/08/18 16:11:21;;;;;;;;;;;;;;;;;;5017435;28;19917;-28
2022/08/18 16:13:47;;;;;;;;;;;;;;;;;;5017441;28;19910;-29
2022/08/18 16:16:14;;;;;;;;;;;;;;;;;;5017324;28;19925;-29
2022/08/18 16:18:40;;;;;;;;;;;;;;;;;;5017381;28;19933;-29
2022/08/18 16:21:09;;;;;;;;;;;;;;;;;;5017375;28;20363;-29
2022/08/18 16:23:36;;;;;;;;;;;;;;;;;;5017546;28;20005;-28
2022/08/18 16:26:02;;;;;;;;;;;;;;;;;;5017169;28;20348;-28
2022/08/18 16:28:28;;;;;;;;;;;;;;;;;;5017270;28;19963;-29
2022/08/18 16:30:54;;;;;;;;;;;;;;;;;;5017007;28;20348;-28
2022/08/18 16:33:20;;;;;;;;;;;;;;;;;;5017235;28;19915;-29
2022/08/18 16:35:48;;;;;;;;;;;;;;;;;;5017294;28;20402;-29
2022/08/18 16:38:14;;;;;;;;;;;;;;;;;;5016974;28;19924;-29
2022/08/18 16:40:40;;;;;;;;;;;;;;;;;;5017050;28;20000;-29
2022/08/18 16:43:06;;;;;;;;;;;;;;;;;;5016799;28;19917;-29
2022/08/18 16:45:34;;;;;;;;;;;;;;;;;;5016843;28;19910;-28
2022/08/18 16:48:01;;;;;;;;;;;;;;;;;;5017030;28;20002;-29
2022/08/18 16:50:27;;;;;;;;;;;;;;;;;;5016660;28;20018;-29
2022/08/18 16:52:53;;;;;;;;;;;;;;;;;;5016695;28;19964;-28
2022/08/18 16:55:19;;;;;;;;;;;;;;;;;;5016637;28;19913;-28
2022/08/18 17:05:59;;;;;;;;;;;;;;;;;;5016583;28;19920;-29
2022/08/18 17:08:25;;;;;;;;;;;;;;;;;;5016690;28;19913;-29
2022/08/18 17:10:51;;;;;;;;;;;;;;;;;;5016404;28;20257;-29
2022/08/18 17:13:17;;;;;;;;;;;;;;;;;;5016484;28;19922;-29
2022/08/18 17:15:43;;;;;;;;;;;;;;;;;;5016327;28;20292;-29